Time;durP1;ratioP1;P1;durP2;ratioP2;P2;SDS_P1;SDS_P2;PMS_P1;PMS_P2;Temp;Humidity;BMP_temperature;BMP_pressure;BME280_temperature;BME280_humidity;BME280_pressure;Samples;Min_cycle;Max_cycle;Signal;HPM_P1;HPM_P2
2023/11/06 00:00:05;;;;;;;2.42;2.33;;;6.40;99.90;;;;;;5105570;27;20216;-76
2023/11/06 00:02:35;;;;;;;2.58;2.47;;;6.40;99.90;;;;;;5102266;28;20217;-76
2023/11/06 00:05:04;;;;;;;2.72;2.50;;;6.40;99.90;;;;;;5101176;28;20246;-78
2023/11/06 00:07:31;;;;;;;2.20;2.10;;;6.30;99.90;;;;;;5102225;28;21590;-77
2023/11/06 00:09:58;;;;;;;2.55;2.45;;;6.30;99.90;;;;;;5104587;27;20276;-77
2023/11/06 00:12:26;;;;;;;2.33;2.22;;;6.30;99.90;;;;;;5104633;28;20299;-77
2023/11/06 00:14:55;;;;;;;2.42;2.33;;;6.30;99.90;;;;;;5103313;28;20201;-76
2023/11/06 00:17:22;;;;;;;2.30;2.20;;;6.30;99.90;;;;;;5103441;28;20231;-77
2023/11/06 00:19:49;;;;;;;2.60;2.50;;;6.30;99.90;;;;;;5104206;28;20209;-77
2023/11/06 00:22:17;;;;;;;2.80;2.70;;;6.30;99.90;;;;;;5103476;28;20221;-75
2023/11/06 00:24:44;;;;;;;2.20;2.10;;;6.30;99.90;;;;;;5105139;28;20873;-76
2023/11/06 00:27:11;;;;;;;2.50;2.40;;;6.20;99.90;;;;;;5099882;28;20208;-77
2023/11/06 00:29:41;;;;;;;3.00;2.80;;;6.20;99.90;;;;;;5104566;28;20193;-75
2023/11/06 00:32:09;;;;;;;2.42;2.33;;;6.20;99.90;;;;;;5101129;27;20265;-76
2023/11/06 00:34:36;;;;;;;3.10;2.90;;;6.20;99.90;;;;;;5103814;28;20310;-78
2023/11/06 00:37:04;;;;;;;2.33;2.17;;;6.10;99.90;;;;;;5103229;28;20265;-76
2023/11/06 00:39:31;;;;;;;2.85;2.65;;;6.20;99.90;;;;;;5104478;28;20212;-77
2023/11/06 00:41:58;;;;;;;2.40;2.30;;;6.10;99.90;;;;;;5102977;27;20728;-78
2023/11/06 00:44:25;;;;;;;2.80;2.70;;;6.10;99.90;;;;;;5100358;28;20222;-76
2023/11/06 00:46:51;;;;;;;2.38;2.28;;;6.10;99.90;;;;;;5100059;28;20205;-77
2023/11/06 00:49:20;;;;;;;3.20;3.00;;;6.10;99.90;;;;;;5100151;28;20198;-77
2023/11/06 00:51:47;;;;;;;2.50;2.40;;;6.10;99.90;;;;;;5096270;28;20200;-77
2023/11/06 00:54:14;;;;;;;2.60;2.50;;;6.10;99.90;;;;;;5098159;28;20197;-78
2023/11/06 00:56:41;;;;;;;2.70;2.60;;;6.10;99.90;;;;;;5102697;28;20288;-76
2023/11/06 00:59:09;;;;;;;3.28;3.08;;;6.10;99.90;;;;;;5103763;28;20217;-78
2023/11/06 01:01:36;;;;;;;2.53;2.42;;;6.20;99.90;;;;;;5102112;28;20297;-77
2023/11/06 01:04:03;;;;;;;2.67;2.58;;;6.20;99.90;;;;;;5099921;28;20225;-75
2023/11/06 01:06:32;;;;;;;3.10;2.90;;;6.20;99.90;;;;;;5100205;28;20194;-76
2023/11/06 01:09:00;;;;;;;2.97;2.78;;;6.20;99.90;;;;;;5098626;28;20197;-77
2023/11/06 01:11:27;;;;;;;2.55;2.40;;;6.20;99.90;;;;;;5100678;28;20282;-76
2023/11/06 01:13:55;;;;;;;2.42;2.33;;;6.20;99.90;;;;;;5100251;28;20278;-75
2023/11/06 01:16:22;;;;;;;2.67;2.50;;;6.20;99.90;;;;;;5102413;28;20201;-78
2023/11/06 01:18:48;;;;;;;2.47;2.38;;;6.20;99.90;;;;;;5100268;28;20651;-76
2023/11/06 01:21:15;;;;;;;2.58;2.47;;;6.20;99.90;;;;;;5100871;28;20207;-77
2023/11/06 01:23:43;;;;;;;2.38;2.28;;;6.30;99.90;;;;;;5100637;28;20284;-76
2023/11/06 01:26:10;;;;;;;2.80;2.70;;;6.20;99.90;;;;;;5100212;28;20675;-76
2023/11/06 01:28:37;;;;;;;2.38;2.28;;;6.20;99.90;;;;;;5098409;28;20247;-77
2023/11/06 01:31:05;;;;;;;2.53;2.42;;;6.20;99.90;;;;;;5097910;28;20205;-77
2023/11/06 01:33:32;;;;;;;2.60;2.50;;;6.20;99.90;;;;;;5101811;28;20225;-77
2023/11/06 01:35:58;;;;;;;2.60;2.50;;;6.20;99.90;;;;;;5101001;28;20296;-76
2023/11/06 01:38:25;;;;;;;2.38;2.28;;;6.20;99.90;;;;;;5101824;28;20626;-77
2023/11/06 01:40:54;;;;;;;2.13;2.03;;;6.20;99.90;;;;;;5095628;28;20220;-77
2023/11/06 01:43:24;;;;;;;2.40;2.30;;;6.20;99.90;;;;;;5098142;28;20217;-76
2023/11/06 01:45:52;;;;;;;2.47;2.38;;;6.20;99.90;;;;;;5098860;28;20243;-76
2023/11/06 01:48:20;;;;;;;2.30;2.20;;;6.10;99.90;;;;;;5101862;28;20201;-77
2023/11/06 01:50:48;;;;;;;2.45;2.35;;;6.20;99.90;;;;;;5101428;28;20242;-77
2023/11/06 01:53:17;;;;;;;2.30;2.20;;;6.10;99.90;;;;;;5105081;28;20814;-77
2023/11/06 01:55:45;;;;;;;2.55;2.45;;;6.10;99.90;;;;;;5102519;28;20193;-77
2023/11/06 01:58:16;;;;;;;2.70;2.60;;;6.10;99.90;;;;;;5103391;28;20223;-77
2023/11/06 02:00:46;;;;;;;2.72;2.63;;;6.10;99.90;;;;;;5109986;28;20567;-78
2023/11/06 02:03:14;;;;;;;3.03;2.92;;;6.10;99.90;;;;;;5108871;28;20244;-77
2023/11/06 02:05:41;;;;;;;2.85;2.75;;;6.10;99.90;;;;;;5110234;28;20229;-77
2023/11/06 02:08:08;;;;;;;2.80;2.67;;;6.10;99.90;;;;;;5104588;28;20719;-77
2023/11/06 02:10:35;;;;;;;2.42;2.33;;;6.10;99.90;;;;;;5104443;28;20188;-77
2023/11/06 02:13:02;;;;;;;2.60;2.50;;;6.10;99.90;;;;;;5104913;28;20273;-76
2023/11/06 02:15:30;;;;;;;2.58;2.47;;;6.10;99.90;;;;;;5104426;28;20710;-75
2023/11/06 02:17:57;;;;;;;2.20;2.10;;;6.10;99.90;;;;;;5103437;28;20246;-75
2023/11/06 02:20:24;;;;;;;2.65;2.50;;;6.10;99.90;;;;;;5103917;28;20581;-77
2023/11/06 02:23:00;;;;;;;2.60;2.50;;;6.10;99.90;;;;;;5105664;28;20243;-76
2023/11/06 02:25:27;;;;;;;2.55;2.42;;;6.10;99.90;;;;;;5104722;28;20277;-77
2023/11/06 02:27:54;;;;;;;2.60;2.40;;;6.10;99.90;;;;;;5107079;28;20196;-77
2023/11/06 02:30:22;;;;;;;2.33;2.22;;;6.00;99.90;;;;;;5106149;28;20698;-76
2023/11/06 02:32:49;;;;;;;2.60;2.50;;;6.00;99.90;;;;;;5109346;27;20217;-76
2023/11/06 02:35:16;;;;;;;2.85;2.67;;;6.00;99.90;;;;;;5110059;28;20694;-76
2023/11/06 02:37:43;;;;;;;2.58;2.47;;;6.00;99.90;;;;;;5102964;28;20218;-77
2023/11/06 02:40:12;;;;;;;2.60;2.50;;;6.00;99.90;;;;;;5108883;28;20220;-76
2023/11/06 02:42:39;;;;;;;2.72;2.63;;;6.00;99.90;;;;;;5105802;28;20233;-77
2023/11/06 02:45:07;;;;;;;2.58;2.47;;;6.00;99.90;;;;;;5105721;28;20651;-76
2023/11/06 02:47:34;;;;;;;2.33;2.22;;;6.00;99.90;;;;;;5103993;28;20594;-77
2023/11/06 02:50:05;;;;;;;2.40;2.30;;;6.00;99.90;;;;;;5104025;28;20712;-76
2023/11/06 02:52:32;;;;;;;2.53;2.42;;;6.00;99.90;;;;;;5105712;28;20221;-76
2023/11/06 02:54:58;;;;;;;2.70;2.60;;;6.00;99.90;;;;;;5103135;28;20254;-77
2023/11/06 02:57:29;;;;;;;2.53;2.42;;;5.90;99.90;;;;;;5100466;28;20254;-76
2023/11/06 02:59:56;;;;;;;2.45;2.35;;;5.90;99.90;;;;;;5106143;28;20300;-76
2023/11/06 03:02:23;;;;;;;2.80;2.70;;;6.00;99.90;;;;;;5100633;28;20309;-78
2023/11/06 03:04:49;;;;;;;2.20;2.10;;;6.00;99.90;;;;;;5104837;28;20209;-76
2023/11/06 03:07:16;;;;;;;2.47;2.38;;;6.00;99.90;;;;;;5098862;28;20201;-77
2023/11/06 03:09:45;;;;;;;2.60;2.50;;;6.10;99.90;;;;;;5106559;28;20269;-76
2023/11/06 03:12:12;;;;;;;2.47;2.38;;;6.10;99.90;;;;;;5101941;28;20220;-76
2023/11/06 03:14:41;;;;;;;2.70;2.60;;;6.10;99.90;;;;;;5107013;28;20258;-76
2023/11/06 03:17:07;;;;;;;2.38;2.28;;;6.10;99.90;;;;;;5099669;28;20300;-75
2023/11/06 03:19:35;;;;;;;2.42;2.33;;;6.00;99.90;;;;;;5106130;28;20193;-76
2023/11/06 03:22:02;;;;;;;2.40;2.30;;;6.00;99.90;;;;;;5107357;28;20249;-76
2023/11/06 03:24:29;;;;;;;2.35;2.25;;;6.00;99.90;;;;;;5105963;28;20207;-77
2023/11/06 03:26:56;;;;;;;2.60;2.50;;;6.00;99.90;;;;;;5098997;28;20193;-76
2023/11/06 03:29:23;;;;;;;2.45;2.35;;;6.00;99.90;;;;;;5106910;28;20622;-76
2023/11/06 03:31:52;;;;;;;2.90;2.70;;;6.00;99.90;;;;;;5106884;28;20242;-77
2023/11/06 03:34:19;;;;;;;2.70;2.60;;;5.90;99.90;;;;;;5099325;28;20287;-76
2023/11/06 03:36:47;;;;;;;2.45;2.35;;;5.90;99.90;;;;;;5104220;28;20204;-76
2023/11/06 03:39:14;;;;;;;2.60;2.40;;;5.90;99.90;;;;;;5103317;28;20265;-77
2023/11/06 03:41:42;;;;;;;2.50;2.30;;;5.90;99.90;;;;;;5105169;28;20279;-77
2023/11/06 03:44:08;;;;;;;2.63;2.53;;;6.00;99.90;;;;;;5100380;28;20998;-77
2023/11/06 03:46:36;;;;;;;2.50;2.40;;;6.00;99.90;;;;;;5100493;28;20197;-76
2023/11/06 03:49:05;;;;;;;2.90;2.80;;;6.00;99.90;;;;;;5097892;28;20778;-76
2023/11/06 03:51:32;;;;;;;2.63;2.53;;;6.00;99.90;;;;;;5097929;28;20228;-75
2023/11/06 03:53:59;;;;;;;2.97;2.88;;;6.00;99.90;;;;;;5097557;28;20251;-78
2023/11/06 03:56:26;;;;;;;2.70;2.60;;;5.90;99.90;;;;;;5097849;28;20201;-75
2023/11/06 03:58:53;;;;;;;2.95;2.85;;;5.90;99.90;;;;;;5100459;28;20254;-79
2023/11/06 04:01:21;;;;;;;2.60;2.50;;;5.90;99.90;;;;;;5098298;28;20225;-76
2023/11/06 04:03:48;;;;;;;2.53;2.40;;;5.80;99.90;;;;;;5095361;28;20265;-76
2023/11/06 04:06:17;;;;;;;2.63;2.53;;;5.80;99.90;;;;;;5096030;28;20198;-77
2023/11/06 04:08:44;;;;;;;2.38;2.28;;;5.80;99.90;;;;;;5096181;28;20220;-77
2023/11/06 04:11:12;;;;;;;2.33;2.22;;;5.80;99.90;;;;;;5095628;28;20214;-77
2023/11/06 04:13:39;;;;;;;2.47;2.38;;;5.80;99.90;;;;;;5095995;28;20229;-77
2023/11/06 04:16:07;;;;;;;2.20;2.10;;;5.80;99.90;;;;;;5096771;28;20201;-78
2023/11/06 04:18:34;;;;;;;2.40;2.30;;;5.80;99.90;;;;;;5096843;28;20224;-77
2023/11/06 04:21:01;;;;;;;2.90;2.70;;;5.80;99.90;;;;;;5092502;28;20303;-78
2023/11/06 04:23:30;;;;;;;2.10;2.00;;;5.80;99.90;;;;;;5101368;28;20273;-78
2023/11/06 04:25:57;;;;;;;2.40;2.30;;;5.80;99.90;;;;;;5097031;28;20208;-77
2023/11/06 04:28:24;;;;;;;2.58;2.47;;;5.70;99.90;;;;;;5095280;28;20619;-78
2023/11/06 04:30:51;;;;;;;2.42;2.33;;;5.70;99.90;;;;;;5094315;28;20210;-76
2023/11/06 04:33:18;;;;;;;2.40;2.30;;;5.70;99.90;;;;;;5095091;28;20221;-77
2023/11/06 04:35:45;;;;;;;2.33;2.22;;;5.70;99.90;;;;;;5093720;28;20204;-76
2023/11/06 04:38:12;;;;;;;2.53;2.42;;;5.70;99.90;;;;;;5095157;28;20205;-77
2023/11/06 04:40:40;;;;;;;2.78;2.58;;;5.60;99.90;;;;;;5095814;28;20322;-76
2023/11/06 04:43:07;;;;;;;2.50;2.40;;;5.60;99.90;;;;;;5096890;28;20221;-76
2023/11/06 04:45:34;;;;;;;2.42;2.33;;;5.60;99.90;;;;;;5095786;28;20194;-77
2023/11/06 04:48:01;;;;;;;2.85;2.70;;;5.60;99.90;;;;;;5095343;28;20200;-78
2023/11/06 04:50:29;;;;;;;2.58;2.47;;;5.60;99.90;;;;;;5094373;28;20212;-77
2023/11/06 04:52:56;;;;;;;2.53;2.42;;;5.60;99.90;;;;;;5095745;27;20931;-76
2023/11/06 04:55:25;;;;;;;2.95;2.80;;;5.60;99.90;;;;;;5095630;28;20924;-77
2023/11/06 04:57:53;;;;;;;2.50;2.40;;;5.60;99.90;;;;;;5095845;28;20262;-79
2023/11/06 05:00:21;;;;;;;2.00;1.90;;;5.50;99.90;;;;;;5095092;28;20319;-78
2023/11/06 05:02:48;;;;;;;2.50;2.40;;;5.60;99.90;;;;;;5095515;28;20749;-78
2023/11/06 05:05:15;;;;;;;2.47;2.38;;;5.60;99.90;;;;;;5099018;28;20202;-76
2023/11/06 05:07:42;;;;;;;2.45;2.35;;;5.50;99.90;;;;;;5100060;28;20205;-76
2023/11/06 05:10:09;;;;;;;2.15;2.05;;;5.50;99.90;;;;;;5100161;28;20229;-78
2023/11/06 05:12:37;;;;;;;2.25;2.15;;;5.50;99.90;;;;;;5100463;28;20313;-78
2023/11/06 05:15:07;;;;;;;2.65;2.55;;;5.50;99.90;;;;;;5097555;28;20201;-78
2023/11/06 05:17:34;;;;;;;2.70;2.60;;;5.50;99.90;;;;;;5095345;28;20233;-77
2023/11/06 05:20:02;;;;;;;2.60;2.50;;;5.50;99.90;;;;;;5098105;28;20236;-76
2023/11/06 05:22:28;;;;;;;2.47;2.38;;;5.60;99.90;;;;;;5097700;28;20308;-79
2023/11/06 05:24:55;;;;;;;2.55;2.45;;;5.60;99.90;;;;;;5100810;28;20664;-78
2023/11/06 05:27:22;;;;;;;2.40;2.30;;;5.60;99.90;;;;;;5100861;28;23108;-77
2023/11/06 05:29:49;;;;;;;2.30;2.20;;;5.50;99.90;;;;;;5098047;28;20205;-78
2023/11/06 05:32:18;;;;;;;2.20;2.10;;;5.50;99.90;;;;;;5098519;28;20269;-76
2023/11/06 05:34:45;;;;;;;2.30;2.20;;;5.50;99.90;;;;;;5101629;28;20236;-78
2023/11/06 05:37:12;;;;;;;2.60;2.50;;;5.50;99.90;;;;;;5100607;28;20223;-78
2023/11/06 05:39:39;;;;;;;2.40;2.30;;;5.40;99.90;;;;;;5098983;28;20341;-76
2023/11/06 05:42:07;;;;;;;2.35;2.25;;;5.50;99.90;;;;;;5101980;28;20312;-77
2023/11/06 05:44:34;;;;;;;2.22;2.13;;;5.50;99.90;;;;;;5099274;28;20626;-77
2023/11/06 05:47:01;;;;;;;2.47;2.38;;;5.50;99.90;;;;;;5100367;28;20192;-77
2023/11/06 05:49:29;;;;;;;2.15;2.05;;;5.50;99.90;;;;;;5107261;28;20459;-76
2023/11/06 05:51:56;;;;;;;2.38;2.28;;;5.50;99.90;;;;;;5111290;28;20193;-79
2023/11/06 05:54:24;;;;;;;2.55;2.45;;;5.50;99.90;;;;;;5105820;28;20197;-78
2023/11/06 05:56:52;;;;;;;2.10;2.00;;;5.50;99.90;;;;;;5109774;28;20555;-76
2023/11/06 05:59:19;;;;;;;2.28;2.17;;;5.50;99.90;;;;;;5102749;28;20239;-77
2023/11/06 06:01:46;;;;;;;2.83;2.63;;;5.50;99.90;;;;;;5101032;28;20217;-76
2023/11/06 06:04:13;;;;;;;2.80;2.70;;;5.50;99.90;;;;;;5099403;28;20229;-76
2023/11/06 06:06:42;;;;;;;2.47;2.38;;;5.50;99.90;;;;;;5099559;28;20664;-76
2023/11/06 06:09:09;;;;;;;2.50;2.40;;;5.50;99.90;;;;;;5101202;28;20268;-78
2023/11/06 06:11:38;;;;;;;2.80;2.70;;;5.50;99.90;;;;;;5099280;28;20239;-76
2023/11/06 06:14:05;;;;;;;2.60;2.50;;;5.40;99.90;;;;;;5097464;28;20221;-77
2023/11/06 06:16:33;;;;;;;2.60;2.50;;;5.40;99.90;;;;;;5101485;28;20721;-76
2023/11/06 06:19:03;;;;;;;2.60;2.50;;;5.40;99.90;;;;;;5101735;28;20250;-76
2023/11/06 06:21:30;;;;;;;2.15;2.05;;;5.40;99.90;;;;;;5102526;28;20220;-77
2023/11/06 06:23:58;;;;;;;2.50;2.40;;;5.50;99.90;;;;;;5101306;28;20216;-76
2023/11/06 06:26:26;;;;;;;2.60;2.50;;;5.50;99.90;;;;;;5102462;28;20201;-79
2023/11/06 06:28:54;;;;;;;2.97;2.78;;;5.50;99.90;;;;;;5102454;28;20205;-77
2023/11/06 06:31:21;;;;;;;2.50;2.40;;;5.50;99.90;;;;;;5102023;28;20196;-77
2023/11/06 06:33:48;;;;;;;2.60;2.50;;;5.50;99.90;;;;;;5100438;28;20221;-77
2023/11/06 06:36:15;;;;;;;2.45;2.35;;;5.50;99.90;;;;;;5101831;28;20282;-79
2023/11/06 06:38:42;;;;;;;2.92;2.72;;;5.60;99.90;;;;;;5097069;28;20209;-76
2023/11/06 06:41:11;;;;;;;2.47;2.38;;;5.60;99.90;;;;;;5096493;28;20225;-76
2023/11/06 06:43:38;;;;;;;2.42;2.33;;;5.60;99.90;;;;;;5096786;28;20225;-78
2023/11/06 06:46:05;;;;;;;2.50;2.40;;;5.70;99.90;;;;;;5101988;28;20466;-78
2023/11/06 06:48:32;;;;;;;2.53;2.42;;;5.70;99.90;;;;;;5101920;28;20204;-77
2023/11/06 06:50:59;;;;;;;2.50;2.40;;;5.70;99.90;;;;;;5098795;28;20205;-76
2023/11/06 06:53:26;;;;;;;2.30;2.20;;;5.80;99.90;;;;;;5102439;28;20224;-77
2023/11/06 06:55:53;;;;;;;2.63;2.53;;;5.80;99.90;;;;;;5106187;28;20193;-77
2023/11/06 06:58:23;;;;;;;2.70;2.60;;;5.80;99.90;;;;;;5107113;28;20193;-75
2023/11/06 07:00:52;;;;;;;2.72;2.63;;;5.90;99.90;;;;;;5103906;28;20292;-77
2023/11/06 07:03:19;;;;;;;2.45;2.35;;;5.90;99.90;;;;;;5101514;28;20225;-77
2023/11/06 07:05:47;;;;;;;2.38;2.28;;;5.90;99.90;;;;;;5101809;28;20687;-77
2023/11/06 07:08:14;;;;;;;2.38;2.28;;;5.90;99.90;;;;;;5101435;28;20208;-77
2023/11/06 07:10:41;;;;;;;2.42;2.28;;;6.30;99.90;;;;;;5102791;27;20204;-77
2023/11/06 07:13:08;;;;;;;3.65;2.50;;;7.10;99.90;;;;;;5104771;27;20594;-77
2023/11/06 07:15:36;;;;;;;2.75;2.55;;;8.00;99.90;;;;;;5106835;28;20652;-77
2023/11/06 07:18:06;;;;;;;2.65;2.55;;;9.00;99.90;;;;;;5107338;28;20215;-77
2023/11/06 07:20:33;;;;;;;2.63;2.53;;;9.80;99.90;;;;;;5105847;28;20201;-77
2023/11/06 07:23:00;;;;;;;2.70;2.60;;;10.60;99.90;;;;;;5103612;28;20251;-76
2023/11/06 07:25:27;;;;;;;2.83;2.50;;;11.20;99.90;;;;;;5102769;28;20639;-79
2023/11/06 07:27:56;;;;;;;3.00;2.80;;;11.60;99.90;;;;;;5107119;28;20217;-77
2023/11/06 07:30:23;;;;;;;2.22;2.13;;;11.90;99.90;;;;;;5105446;28;20720;-78
2023/11/06 07:32:51;;;;;;;2.75;2.55;;;12.30;99.90;;;;;;5107352;28;20300;-78
2023/11/06 07:35:18;;;;;;;2.72;2.53;;;12.50;99.90;;;;;;5100108;28;20734;-77
2023/11/06 07:37:45;;;;;;;2.35;2.25;;;12.30;99.90;;;;;;5106044;28;20744;-76
2023/11/06 07:40:13;;;;;;;2.60;2.50;;;12.30;99.90;;;;;;5106410;28;20242;-76
2023/11/06 07:42:40;;;;;;;2.58;2.47;;;12.60;99.90;;;;;;5106456;28;20316;-76
2023/11/06 07:45:08;;;;;;;2.70;2.50;;;12.80;99.90;;;;;;5096311;28;20255;-77
2023/11/06 07:47:36;;;;;;;3.30;2.78;;;13.20;99.90;;;;;;5102735;28;20228;-77
2023/11/06 07:50:05;;;;;;;2.83;2.63;;;13.30;99.90;;;;;;5105630;28;20205;-76
2023/11/06 07:52:33;;;;;;;2.42;2.33;;;13.60;99.90;;;;;;5103327;28;20308;-77
2023/11/06 07:55:00;;;;;;;4.72;3.58;;;13.80;99.90;;;;;;5103534;28;20193;-76
2023/11/06 07:57:26;;;;;;;2.33;2.13;;;14.20;99.90;;;;;;5098742;28;20254;-76
2023/11/06 07:59:53;;;;;;;2.22;2.08;;;14.30;99.90;;;;;;5104374;28;20613;-77
2023/11/06 08:02:21;;;;;;;2.33;2.13;;;14.50;99.90;;;;;;5101739;28;20271;-76
2023/11/06 08:04:49;;;;;;;2.15;1.98;;;14.70;99.90;;;;;;5107095;28;20742;-77
2023/11/06 08:07:17;;;;;;;2.08;1.98;;;15.10;99.90;;;;;;5101647;28;20231;-79
2023/11/06 08:09:44;;;;;;;1.92;1.83;;;15.50;99.90;;;;;;5102137;28;20208;-76
2023/11/06 08:12:13;;;;;;;2.28;2.08;;;15.70;99.90;;;;;;5103416;28;20273;-77
2023/11/06 08:14:40;;;;;;;1.95;1.85;;;15.90;99.90;;;;;;5104796;28;20702;-77
2023/11/06 08:17:07;;;;;;;1.90;1.80;;;16.00;99.90;;;;;;5103916;28;20240;-76
2023/11/06 08:19:38;;;;;;;2.00;1.90;;;16.10;99.90;;;;;;5103723;28;20203;-77
2023/11/06 08:22:07;;;;;;;1.85;1.75;;;16.00;99.90;;;;;;5102581;27;20778;-77
2023/11/06 08:24:36;;;;;;;2.10;2.00;;;16.00;99.90;;;;;;5101352;28;20209;-78
2023/11/06 08:27:03;;;;;;;1.70;1.60;;;16.20;99.90;;;;;;5107001;28;20273;-77
2023/11/06 08:29:30;;;;;;;2.00;1.90;;;16.20;99.90;;;;;;5098508;28;20225;-78
2023/11/06 08:31:59;;;;;;;2.13;1.88;;;16.40;99.90;;;;;;5101536;28;20194;-77
2023/11/06 08:34:26;;;;;;;2.35;2.20;;;16.40;99.90;;;;;;5113271;28;20229;-77
2023/11/06 08:36:53;;;;;;;2.05;1.95;;;16.50;99.90;;;;;;5108248;28;20655;-76
2023/11/06 08:39:20;;;;;;;1.75;1.65;;;16.70;99.90;;;;;;5112765;28;20348;-77
2023/11/06 08:41:48;;;;;;;3.78;1.70;;;16.60;99.90;;;;;;5114616;27;20217;-76
2023/11/06 08:44:15;;;;;;;2.20;2.00;;;16.50;99.90;;;;;;5104384;27;20200;-76
2023/11/06 08:46:43;;;;;;;2.00;1.90;;;16.50;99.90;;;;;;5112415;28;20208;-78
2023/11/06 08:49:10;;;;;;;2.00;1.90;;;16.60;99.90;;;;;;5108239;28;20197;-77
2023/11/06 08:51:39;;;;;;;2.33;2.20;;;16.60;99.90;;;;;;5103880;28;20216;-77
2023/11/06 08:54:07;;;;;;;2.10;1.80;;;16.70;99.90;;;;;;5105972;28;20222;-79
2023/11/06 08:56:34;;;;;;;1.90;1.80;;;16.80;99.90;;;;;;5099167;28;20664;-77
2023/11/06 08:59:02;;;;;;;1.67;1.58;;;17.00;99.90;;;;;;5104493;28;20205;-77
2023/11/06 09:01:29;;;;;;;2.97;2.03;;;17.10;99.90;;;;;;5103623;27;20201;-76
2023/11/06 09:03:56;;;;;;;2.10;1.65;;;17.10;99.90;;;;;;5101047;27;20748;-75
2023/11/06 09:06:23;;;;;;;1.80;1.70;;;17.50;99.90;;;;;;5112249;28;20193;-77
2023/11/06 09:08:50;;;;;;;1.70;1.60;;;17.50;99.90;;;;;;5104359;27;20619;-76
2023/11/06 09:11:17;;;;;;;4.10;1.90;;;17.20;99.90;;;;;;5094957;28;20215;-77
2023/11/06 09:13:44;;;;;;;1.63;1.52;;;16.20;99.90;;;;;;5096247;28;20598;-79
2023/11/06 09:16:12;;;;;;;1.33;1.23;;;15.30;99.90;;;;;;5094844;28;20738;-77
2023/11/06 09:18:40;;;;;;;1.50;1.40;;;14.60;99.90;;;;;;5094441;28;20223;-77
2023/11/06 09:21:13;;;;;;;1.90;1.80;;;14.00;99.90;;;;;;5098154;28;20263;-76
2023/11/06 09:23:40;;;;;;;1.88;1.77;;;13.40;99.90;;;;;;5092562;28;20226;-77
2023/11/06 09:26:09;;;;;;;1.75;1.65;;;12.80;99.90;;;;;;5095243;28;20332;-77
2023/11/06 09:28:36;;;;;;;1.92;1.83;;;12.40;99.90;;;;;;5091356;28;20715;-76
2023/11/06 09:31:04;;;;;;;1.70;1.60;;;12.20;99.90;;;;;;5096019;28;20775;-76
2023/11/06 09:33:32;;;;;;;2.60;2.25;;;12.10;99.90;;;;;;5097392;28;20586;-76
2023/11/06 09:35:59;;;;;;;2.20;2.10;;;12.20;99.90;;;;;;5098715;28;20254;-78
2023/11/06 09:38:26;;;;;;;2.05;1.95;;;12.10;99.90;;;;;;5097592;28;20291;-76
2023/11/06 09:40:53;;;;;;;1.88;1.77;;;12.20;99.90;;;;;;5097059;28;20276;-78
2023/11/06 09:43:21;;;;;;;2.28;2.17;;;12.30;99.90;;;;;;5096757;28;20216;-77
2023/11/06 09:45:48;;;;;;;2.28;2.08;;;12.70;99.90;;;;;;5096171;28;20250;-76
2023/11/06 09:48:19;;;;;;;3.13;2.03;;;13.60;99.90;;;;;;5094753;28;20196;-75
2023/11/06 09:50:50;;;;;;;2.00;1.90;;;14.50;99.90;;;;;;5086353;28;20192;-76
2023/11/06 09:53:18;;;;;;;2.05;1.95;;;15.20;99.90;;;;;;5090691;28;20235;-76
2023/11/06 09:55:46;;;;;;;3.95;2.22;;;15.30;99.90;;;;;;5087937;28;20216;-76
2023/11/06 09:58:13;;;;;;;2.53;2.33;;;15.30;99.90;;;;;;5091315;28;20258;-75
2023/11/06 10:00:40;;;;;;;2.20;2.00;;;15.20;99.90;;;;;;5088627;28;20769;-75
2023/11/06 10:03:07;;;;;;;1.65;1.55;;;15.20;99.90;;;;;;5092124;28;20234;-75
2023/11/06 10:05:34;;;;;;;2.10;2.00;;;15.40;99.90;;;;;;5089710;28;20232;-75
2023/11/06 10:08:04;;;;;;;1.92;1.80;;;15.80;99.90;;;;;;5086864;28;20249;-75
2023/11/06 10:10:32;;;;;;;1.90;1.80;;;16.00;99.90;;;;;;5090370;28;20685;-75
2023/11/06 10:13:04;;;;;;;1.88;1.77;;;16.10;99.90;;;;;;5090602;28;20708;-76
2023/11/06 10:15:32;;;;;;;2.40;1.90;;;16.30;99.90;;;;;;5088891;28;20201;-76
2023/11/06 10:18:13;;;;;;;1.85;1.75;;;16.30;99.90;;;;;;5086057;27;20205;-76
2023/11/06 10:20:44;;;;;;;2.08;1.98;;;16.20;99.90;;;;;;5089818;28;20217;-76
2023/11/06 10:23:21;;;;;;;5.18;2.15;;;16.20;99.90;;;;;;5092967;28;20258;-76
2023/11/06 10:25:48;;;;;;;2.30;1.92;;;16.30;99.90;;;;;;5097077;28;20624;-76
2023/11/06 10:28:19;;;;;;;1.90;1.80;;;16.50;99.90;;;;;;5101652;28;20269;-77
2023/11/06 10:30:47;;;;;;;4.82;1.50;;;16.70;99.90;;;;;;5102051;28;20748;-76
2023/11/06 10:33:15;;;;;;;1.70;1.60;;;16.90;99.90;;;;;;5100537;28;20261;-77
2023/11/06 10:35:42;;;;;;;1.33;1.23;;;16.90;99.90;;;;;;5098747;28;20250;-80
2023/11/06 10:38:26;;;;;;;1.60;1.50;;;16.80;99.90;;;;;;5098497;28;20309;-76
2023/11/06 10:40:54;;;;;;;1.70;1.60;;;16.50;99.90;;;;;;5098854;28;20228;-77
2023/11/06 10:43:21;;;;;;;1.60;1.50;;;15.90;99.90;;;;;;5098318;28;20221;-77
2023/11/06 10:45:49;;;;;;;1.60;1.50;;;15.60;99.90;;;;;;5097100;28;20258;-76
2023/11/06 10:48:19;;;;;;;1.80;1.70;;;15.60;99.90;;;;;;5101535;28;20334;-77
2023/11/06 10:50:47;;;;;;;1.63;1.52;;;15.40;99.90;;;;;;5100432;28;20197;-76
2023/11/06 10:53:15;;;;;;;1.70;1.60;;;15.10;99.90;;;;;;5102328;28;20225;-75
2023/11/06 10:55:44;;;;;;;1.98;1.77;;;15.00;99.90;;;;;;5101246;28;20200;-76
2023/11/06 10:58:15;;;;;;;1.70;1.60;;;15.20;99.90;;;;;;5098813;28;20196;-77
2023/11/06 11:00:43;;;;;;;1.25;1.25;;;15.20;99.90;;;;;;5098221;28;20202;-76
2023/11/06 11:03:10;;;;;;;1.50;1.40;;;15.10;99.90;;;;;;5102584;28;20304;-76
2023/11/06 11:05:38;;;;;;;1.58;1.48;;;15.20;99.90;;;;;;5100063;28;20259;-76
2023/11/06 11:08:05;;;;;;;1.75;1.65;;;15.10;99.90;;;;;;5100644;28;20771;-76
2023/11/06 11:10:32;;;;;;;1.95;1.80;;;15.00;99.90;;;;;;5094575;27;20671;-76
2023/11/06 11:13:02;;;;;;;1.80;1.70;;;15.20;99.90;;;;;;5096920;28;20213;-76
2023/11/06 11:15:33;;;;;;;1.65;1.55;;;15.30;99.90;;;;;;5098248;28;20190;-77
2023/11/06 11:18:04;;;;;;;1.88;1.75;;;15.30;99.90;;;;;;5098171;28;21555;-77
2023/11/06 11:20:53;;;;;;;1.80;1.70;;;15.30;99.90;;;;;;5098636;28;20746;-75
2023/11/06 11:23:36;;;;;;;2.20;2.00;;;15.20;99.90;;;;;;5099465;28;20255;-74
2023/11/06 11:26:04;;;;;;;1.80;1.70;;;15.10;99.90;;;;;;5096082;28;20292;-76
2023/11/06 11:28:53;;;;;;;1.70;1.60;;;14.90;99.90;;;;;;5099281;28;20189;-74
2023/11/06 11:31:34;;;;;;;8.55;4.72;;;15.30;99.90;;;;;;5096721;28;20197;-76
2023/11/06 11:34:01;;;;;;;3.20;2.83;;;15.50;99.90;;;;;;5095549;28;20852;-76
2023/11/06 11:36:33;;;;;;;2.53;2.33;;;15.50;99.90;;;;;;5093312;28;20234;-76
2023/11/06 11:39:01;;;;;;;1.92;1.83;;;15.70;99.90;;;;;;5092156;28;20218;-75
2023/11/06 11:41:28;;;;;;;3.30;2.00;;;15.70;99.90;;;;;;5097649;28;20197;-77
2023/11/06 11:44:10;;;;;;;1.80;1.70;;;15.80;99.90;;;;;;5095454;28;20275;-75
2023/11/06 11:47:00;;;;;;;1.67;1.58;;;15.80;99.90;;;;;;5096086;28;20205;-74
2023/11/06 11:49:44;;;;;;;2.00;1.70;;;15.90;99.90;;;;;;5093573;28;20201;-74
2023/11/06 11:52:13;;;;;;;1.90;1.75;;;15.90;99.90;;;;;;5097473;28;20217;-75
2023/11/06 11:54:41;;;;;;;2.00;1.90;;;16.00;99.90;;;;;;5097203;28;20846;-76
2023/11/06 11:57:09;;;;;;;2.08;1.90;;;16.20;99.90;;;;;;5095499;28;20245;-76
2023/11/06 11:59:41;;;;;;;2.08;1.98;;;16.10;99.90;;;;;;5096196;28;20208;-76
2023/11/06 12:02:27;;;;;;;2.08;1.98;;;16.00;99.90;;;;;;5097731;28;20315;-76
2023/11/06 12:04:59;;;;;;;1.50;1.40;;;16.00;99.90;;;;;;5097042;28;20197;-77
2023/11/06 12:07:28;;;;;;;1.77;1.67;;;16.00;99.90;;;;;;5098970;28;20201;-77
2023/11/06 12:09:56;;;;;;;2.60;1.52;;;16.00;99.90;;;;;;5094430;28;20197;-77
2023/11/06 12:12:24;;;;;;;2.00;1.90;;;16.30;99.90;;;;;;5095433;28;20228;-75
2023/11/06 12:14:52;;;;;;;1.50;1.40;;;16.20;99.90;;;;;;5097983;28;20562;-76
2023/11/06 12:17:28;;;;;;;1.70;1.60;;;16.00;99.90;;;;;;5097314;28;20218;-77
2023/11/06 12:19:55;;;;;;;1.55;1.45;;;16.10;99.90;;;;;;5095474;28;20192;-75
2023/11/06 12:22:23;;;;;;;1.80;1.70;;;16.30;99.90;;;;;;5093543;28;20220;-76
2023/11/06 12:24:51;;;;;;;1.50;1.40;;;16.30;99.90;;;;;;5096033;28;20205;-77
2023/11/06 12:27:19;;;;;;;1.63;1.52;;;16.30;99.90;;;;;;5092027;28;20259;-77
2023/11/06 12:29:46;;;;;;;1.35;1.30;;;16.50;99.90;;;;;;5096361;28;20232;-77
2023/11/06 12:32:21;;;;;;;1.30;1.20;;;16.60;99.90;;;;;;5097639;28;20252;-77
2023/11/06 12:35:05;;;;;;;1.65;1.55;;;16.50;99.90;;;;;;5095934;28;20678;-76
2023/11/06 12:37:46;;;;;;;1.40;1.30;;;16.30;99.90;;;;;;5092660;28;20265;-75
2023/11/06 12:40:16;;;;;;;1.42;1.35;;;16.30;99.90;;;;;;5096842;27;20612;-77
2023/11/06 12:42:45;;;;;;;1.60;1.50;;;16.30;99.90;;;;;;5096196;27;20252;-76
2023/11/06 12:45:31;;;;;;;1.50;1.40;;;16.10;99.90;;;;;;5095345;28;20231;-76
2023/11/06 12:47:59;;;;;;;2.38;1.77;;;16.10;99.90;;;;;;5094411;28;20333;-76
2023/11/06 12:50:31;;;;;;;1.73;1.63;;;16.10;99.90;;;;;;5101761;28;20279;-76
2023/11/06 12:52:59;;;;;;;1.70;1.60;;;16.20;99.90;;;;;;5103061;28;20235;-78
2023/11/06 12:55:28;;;;;;;1.85;1.75;;;16.20;99.90;;;;;;5095614;28;20201;-77
2023/11/06 12:58:08;;;;;;;1.70;1.60;;;16.10;99.90;;;;;;5095559;28;20211;-76